createdAt,value
2022-10-21T00:01:49.673Z,6.80
2022-10-21T00:04:38.498Z,6.80
2022-10-21T00:07:27.117Z,6.80
2022-10-21T00:10:17.062Z,6.40
2022-10-21T00:13:05.775Z,6.50
2022-10-21T00:16:01.969Z,6.50
2022-10-21T00:18:51.226Z,6.60
2022-10-21T00:21:41.180Z,6.70
2022-10-21T00:24:30.325Z,6.60
2022-10-21T00:27:20.391Z,6.50
2022-10-21T00:30:10.624Z,6.60
2022-10-21T00:33:02.224Z,6.40
2022-10-21T00:35:53.345Z,6.40
2022-10-21T00:38:43.297Z,6.30
2022-10-21T00:41:31.899Z,6.40
2022-10-21T00:44:22.132Z,6.50
2022-10-21T00:47:16.384Z,6.40
2022-10-21T00:50:06.713Z,6.40
2022-10-21T00:52:57.486Z,6.50
2022-10-21T00:55:51.313Z,6.40
2022-10-21T00:58:40.854Z,6.50
2022-10-21T01:01:31.501Z,6.30
2022-10-21T01:04:20.482Z,6.10
2022-10-21T01:07:09.306Z,6.10
2022-10-21T01:09:58.042Z,6.00
2022-10-21T01:12:59.954Z,6.20
2022-10-21T01:15:56.944Z,6.20
2022-10-21T01:18:53.954Z,6.10
2022-10-21T01:21:46.656Z,6.10
2022-10-21T01:24:55.744Z,6.30
2022-10-21T01:27:56.040Z,6.30
2022-10-21T01:30:54.327Z,6.30
2022-10-21T01:33:46.648Z,6.30
2022-10-21T01:36:41.260Z,6.20
2022-10-21T01:39:39.501Z,6.30
2022-10-21T01:42:38.276Z,6.10
2022-10-21T01:45:32.827Z,6.20
2022-10-21T01:48:26.651Z,6.20
2022-10-21T01:51:17.972Z,6.30
2022-10-21T01:54:11.123Z,6.20
2022-10-21T01:57:00.757Z,5.90
2022-10-21T01:59:50.555Z,5.80
2022-10-21T02:02:43.453Z,5.80
2022-10-21T02:05:35.086Z,5.80
2022-10-21T02:08:23.937Z,5.80
2022-10-21T02:11:13.553Z,5.70
2022-10-21T02:14:07.620Z,5.60
2022-10-21T02:16:56.408Z,5.50
2022-10-21T02:19:46.642Z,5.70
2022-10-21T02:22:39.051Z,5.60
2022-10-21T02:25:32.876Z,5.60
2022-10-21T02:28:22.019Z,5.60
2022-10-21T02:31:23.816Z,5.50
2022-10-21T02:34:27.399Z,5.60
2022-10-21T02:37:27.192Z,5.60
2022-10-21T02:40:21.222Z,5.60
2022-10-21T02:43:13.502Z,5.30
2022-10-21T02:46:06.949Z,5.30
2022-10-21T02:48:55.590Z,5.40
2022-10-21T02:51:45.109Z,5.40
2022-10-21T02:54:33.763Z,5.50
2022-10-21T02:57:23.744Z,5.50
2022-10-21T03:00:14.016Z,5.70
2022-10-21T03:03:02.617Z,5.70
2022-10-21T03:05:51.366Z,5.60
2022-10-21T03:08:40.020Z,5.50
2022-10-21T03:11:28.685Z,5.60
2022-10-21T03:14:18.824Z,5.50
2022-10-21T03:17:07.465Z,5.50
2022-10-21T03:19:56.040Z,5.50
2022-10-21T03:22:45.140Z,5.40
2022-10-21T03:25:35.723Z,5.30
2022-10-21T03:28:24.651Z,5.40
2022-10-21T03:31:14.639Z,5.30
2022-10-21T03:34:03.550Z,5.40
2022-10-21T03:36:52.196Z,5.40
2022-10-21T03:39:40.932Z,5.40
2022-10-21T03:42:29.975Z,5.10
2022-10-21T03:45:19.636Z,4.90
2022-10-21T03:48:09.847Z,4.90
2022-10-21T03:50:58.633Z,5.00
2022-10-21T03:53:47.365Z,5.00
2022-10-21T03:56:36.048Z,5.00
2022-10-21T03:59:24.791Z,5.10
2022-10-21T04:02:13.544Z,5.10
2022-10-21T04:05:03.551Z,5.10
2022-10-21T04:07:53.119Z,5.00
2022-10-21T04:10:42.324Z,5.20
2022-10-21T04:13:31.591Z,5.30
2022-10-21T04:16:22.148Z,5.30
2022-10-21T04:19:13.874Z,5.30
2022-10-21T04:22:03.879Z,5.20
2022-10-21T04:24:52.891Z,5.30
2022-10-21T04:27:41.840Z,5.30
2022-10-21T04:30:30.558Z,5.30
2022-10-21T04:33:19.500Z,5.20
2022-10-21T04:36:08.777Z,5.00
2022-10-21T04:38:58.772Z,4.90
2022-10-21T04:41:49.979Z,5.00
2022-10-21T04:44:43.556Z,4.90
2022-10-21T04:47:32.172Z,5.10
2022-10-21T04:50:20.888Z,5.20
2022-10-21T04:53:09.687Z,5.30
2022-10-21T04:55:59.930Z,5.20
2022-10-21T04:58:48.522Z,5.20
2022-10-21T05:01:37.389Z,5.20
2022-10-21T05:04:26.049Z,5.20
2022-10-21T05:07:14.693Z,5.30
2022-10-21T05:10:03.375Z,5.30
2022-10-21T05:12:53.736Z,5.30
2022-10-21T05:15:42.431Z,5.40
2022-10-21T05:18:31.690Z,5.40
2022-10-21T05:21:20.422Z,5.40
2022-10-21T05:24:09.307Z,5.30
2022-10-21T05:26:58.127Z,5.30
2022-10-21T05:29:48.190Z,5.30
2022-10-21T05:32:37.193Z,5.30
2022-10-21T05:35:25.998Z,4.90
2022-10-21T05:38:14.663Z,4.90
2022-10-21T05:41:03.559Z,4.80
2022-10-21T05:43:52.236Z,5.10
2022-10-21T05:46:42.397Z,5.20
2022-10-21T05:49:49.135Z,5.20
2022-10-21T05:52:38.363Z,5.40
2022-10-21T05:55:27.492Z,5.40
2022-10-21T05:58:16.357Z,5.40
2022-10-21T06:01:05.159Z,5.40
2022-10-21T06:03:55.234Z,5.50
2022-10-21T06:06:44.019Z,5.50
2022-10-21T06:09:32.985Z,5.50
2022-10-21T06:12:22.037Z,5.50
2022-10-21T06:15:11.445Z,5.40
2022-10-21T06:18:00.200Z,5.50
2022-10-21T06:20:50.232Z,5.40
2022-10-21T06:23:39.598Z,5.50
2022-10-21T06:26:29.323Z,5.60
2022-10-21T06:29:20.195Z,5.60
2022-10-21T06:32:08.985Z,5.30
2022-10-21T06:34:57.687Z,5.40
2022-10-21T06:37:48.051Z,5.50
2022-10-21T06:40:36.772Z,5.50
2022-10-21T06:43:25.657Z,5.50
2022-10-21T06:46:16.048Z,5.50
2022-10-21T06:49:04.870Z,5.60
2022-10-21T06:51:53.831Z,5.90
2022-10-21T06:54:43.985Z,5.90
2022-10-21T06:57:32.932Z,5.90
2022-10-21T07:00:22.078Z,6.00
2022-10-21T07:03:10.796Z,6.00
2022-10-21T07:06:00.440Z,6.10
2022-10-21T07:08:57.917Z,6.10
2022-10-21T07:11:48.818Z,6.10
2022-10-21T07:14:37.436Z,6.30
2022-10-21T07:17:26.190Z,6.50
2022-10-21T07:20:14.959Z,6.50
2022-10-21T07:23:03.706Z,6.70
2022-10-21T07:25:52.498Z,6.70
2022-10-21T07:28:47.136Z,6.80
2022-10-21T07:31:38.321Z,6.80
2022-10-21T07:34:27.262Z,6.90
2022-10-21T07:37:16.166Z,6.80
2022-10-21T07:40:09.156Z,7.00
2022-10-21T07:42:59.045Z,7.30
2022-10-21T07:45:49.220Z,7.40
2022-10-21T07:48:38.051Z,7.40
2022-10-21T07:51:31.033Z,7.30
2022-10-21T07:54:21.440Z,7.40
2022-10-21T07:57:10.224Z,7.50
2022-10-21T07:59:58.872Z,7.50
2022-10-21T08:02:48.946Z,7.70
2022-10-21T08:05:41.397Z,7.90
2022-10-21T08:08:34.160Z,7.80
2022-10-21T08:11:23.520Z,7.70
2022-10-21T08:14:12.546Z,7.70
2022-10-21T08:17:01.552Z,7.80
2022-10-21T08:19:51.817Z,7.80
2022-10-21T08:22:41.081Z,7.90
2022-10-21T08:25:30.605Z,8.00
2022-10-21T08:28:20.711Z,8.10
2022-10-21T08:31:11.299Z,8.00
2022-10-21T08:34:00.142Z,8.10
2022-10-21T08:36:50.766Z,8.10
2022-10-21T08:39:39.815Z,8.20
2022-10-21T08:42:28.701Z,8.20
2022-10-21T08:45:27.642Z,8.20
2022-10-21T08:48:21.068Z,8.30
2022-10-21T08:51:17.171Z,8.60
2022-10-21T08:54:13.502Z,8.60
2022-10-21T08:57:03.200Z,8.70
2022-10-21T08:59:52.174Z,8.80
2022-10-21T09:02:56.393Z,8.80
2022-10-21T09:06:17.401Z,8.80
2022-10-21T09:09:18.029Z,8.80
2022-10-21T09:12:15.161Z,8.60
2022-10-21T09:15:15.914Z,8.70
2022-10-21T09:18:18.832Z,8.80
2022-10-21T09:21:14.423Z,9.00
2022-10-21T09:24:12.322Z,9.10
2022-10-21T09:27:03.056Z,9.00
2022-10-21T09:29:57.056Z,9.10
2022-10-21T09:32:51.154Z,9.20
2022-10-21T09:35:48.272Z,9.20
2022-10-21T09:38:44.666Z,9.10
2022-10-21T09:41:40.450Z,9.20
2022-10-21T09:44:29.535Z,9.30
2022-10-21T09:47:21.925Z,9.40
2022-10-21T09:50:18.069Z,9.30
2022-10-21T09:53:13.464Z,9.40
2022-10-21T09:56:06.887Z,9.60
2022-10-21T09:59:08.150Z,9.60
2022-10-21T10:01:57.184Z,9.70
2022-10-21T10:04:46.067Z,9.90
2022-10-21T10:07:37.031Z,9.70
2022-10-21T10:10:34.107Z,9.80
2022-10-21T10:13:24.002Z,9.80
2022-10-21T10:16:23.632Z,9.50
2022-10-21T10:19:17.036Z,9.50
2022-10-21T10:22:13.172Z,9.60
2022-10-21T10:25:10.094Z,9.70
2022-10-21T10:28:00.929Z,9.80
2022-10-21T10:30:53.689Z,9.80
2022-10-21T10:33:58.766Z,9.80
2022-10-21T10:36:50.957Z,9.80
2022-10-21T10:39:41.125Z,9.70
2022-10-21T10:42:35.078Z,9.80
2022-10-21T10:45:24.559Z,9.60
2022-10-21T10:48:23.912Z,9.60
2022-10-21T10:51:27.545Z,9.50
2022-10-21T10:54:19.581Z,9.50
2022-10-21T10:57:14.285Z,9.60
2022-10-21T11:00:07.373Z,9.60
2022-10-21T11:03:01.279Z,9.50
2022-10-21T11:05:53.056Z,9.80
2022-10-21T11:08:47.801Z,9.90
2022-10-21T11:11:40.064Z,9.80
2022-10-21T11:14:28.802Z,9.70
2022-10-21T11:17:20.987Z,9.70
2022-10-21T11:20:22.340Z,9.80
2022-10-21T11:23:31.891Z,9.90
2022-10-21T11:26:30.121Z,10.10
2022-10-21T11:29:36.826Z,10.10
2022-10-21T11:32:36.048Z,10.30
2022-10-21T11:35:42.555Z,10.50
2022-10-21T11:38:49.698Z,10.60
2022-10-21T11:41:45.881Z,10.50
2022-10-21T11:44:45.138Z,10.40
2022-10-21T11:47:42.091Z,10.30
2022-10-21T11:50:42.188Z,10.30
2022-10-21T11:53:43.278Z,10.30
2022-10-21T11:56:40.109Z,10.40
2022-10-21T11:59:46.280Z,10.30
2022-10-21T12:02:44.360Z,10.30
2022-10-21T12:05:37.018Z,10.40
2022-10-21T12:08:29.381Z,10.40
2022-10-21T12:11:23.679Z,10.40
2022-10-21T12:14:30.842Z,10.40
2022-10-21T12:17:23.147Z,10.40
2022-10-21T12:20:22.927Z,10.60
2022-10-21T12:23:16.987Z,10.70
2022-10-21T12:26:16.327Z,10.80
2022-10-21T12:29:14.877Z,10.90
2022-10-21T12:32:09.389Z,11.00
2022-10-21T12:34:59.726Z,11.10
2022-10-21T12:38:20.954Z,11.20
2022-10-21T12:41:29.528Z,11.00
2022-10-21T12:44:26.647Z,10.90
2022-10-21T12:47:30.517Z,10.90
2022-10-21T12:50:29.768Z,10.90
2022-10-21T12:53:38.588Z,10.80
2022-10-21T12:56:31.636Z,10.90
2022-10-21T12:59:33.235Z,10.90
2022-10-21T13:02:29.412Z,10.90
2022-10-21T13:05:56.601Z,10.90
2022-10-21T13:08:56.121Z,11.00
2022-10-21T13:11:44.905Z,11.00
2022-10-21T13:14:41.508Z,10.90
2022-10-21T13:17:50.192Z,11.00
2022-10-21T13:20:49.415Z,11.10
2022-10-21T13:23:41.579Z,11.10
2022-10-21T13:26:31.795Z,11.10
2022-10-21T13:29:26.564Z,11.10
2022-10-21T13:32:34.517Z,11.10
2022-10-21T13:35:30.749Z,11.10
2022-10-21T13:38:23.542Z,11.10
2022-10-21T13:41:23.915Z,11.20
2022-10-21T13:44:28.962Z,11.10
2022-10-21T13:47:27.347Z,11.10
2022-10-21T13:50:20.310Z,11.00
2022-10-21T13:53:35.762Z,11.10
2022-10-21T13:56:25.914Z,11.00
2022-10-21T13:59:25.653Z,11.00
2022-10-21T14:02:27.593Z,11.10
2022-10-21T14:05:35.699Z,11.20
2022-10-21T14:08:29.640Z,11.20
2022-10-21T14:11:21.922Z,11.10
2022-10-21T14:14:12.107Z,11.20
2022-10-21T14:17:08.081Z,11.20
2022-10-21T14:20:06.147Z,11.20
2022-10-21T14:22:56.841Z,11.00
2022-10-21T14:25:45.751Z,11.00
2022-10-21T14:28:35.416Z,11.10
2022-10-21T14:31:24.809Z,11.10
2022-10-21T14:34:23.233Z,11.10
2022-10-21T14:37:22.133Z,11.20
2022-10-21T14:40:12.878Z,11.20
2022-10-21T14:43:04.929Z,11.20
2022-10-21T14:45:54.955Z,11.20
2022-10-21T14:48:48.970Z,11.20
2022-10-21T14:51:39.169Z,11.20
2022-10-21T14:54:42.007Z,11.30
2022-10-21T14:57:40.415Z,11.20
2022-10-21T15:00:31.822Z,11.20
2022-10-21T15:03:38.581Z,11.20
2022-10-21T15:06:28.854Z,11.20
2022-10-21T15:09:23.584Z,11.20
2022-10-21T15:12:19.790Z,11.20
2022-10-21T15:15:42.379Z,11.20
2022-10-21T15:18:34.067Z,11.20
2022-10-21T15:21:28.666Z,11.10
2022-10-21T15:24:22.901Z,11.10
2022-10-21T15:27:18.368Z,11.20
2022-10-21T15:30:15.189Z,11.10
2022-10-21T15:33:03.876Z,11.20
2022-10-21T15:36:02.003Z,11.10
2022-10-21T15:38:50.710Z,11.10
2022-10-21T15:41:40.898Z,11.10
2022-10-21T15:44:31.229Z,11.00
2022-10-21T15:47:20.775Z,11.10
2022-10-21T15:50:15.059Z,11.10
2022-10-21T15:53:03.673Z,11.10
2022-10-21T15:55:52.592Z,11.00
2022-10-21T15:58:42.733Z,11.00
2022-10-21T16:01:31.915Z,11.00
2022-10-21T16:04:20.710Z,11.00
2022-10-21T16:07:20.791Z,11.00
2022-10-21T16:10:19.818Z,10.90
2022-10-21T16:13:09.188Z,10.90
2022-10-21T16:15:59.181Z,10.90
2022-10-21T16:18:48.349Z,11.00
2022-10-21T16:21:37.243Z,10.90
2022-10-21T16:24:26.413Z,11.00
2022-10-21T16:27:31.239Z,10.90
2022-10-21T16:30:27.215Z,10.80
2022-10-21T16:33:17.328Z,10.80
2022-10-21T16:36:16.294Z,10.80
2022-10-21T16:39:05.487Z,10.80
2022-10-21T16:41:54.550Z,10.80
2022-10-21T16:44:44.840Z,10.80
2022-10-21T16:47:33.713Z,10.80
2022-10-21T16:50:26.916Z,10.80
2022-10-21T16:53:17.341Z,10.80
2022-10-21T16:56:06.286Z,10.90
2022-10-21T16:58:55.331Z,10.90
2022-10-21T17:01:44.125Z,10.80
2022-10-21T17:04:32.947Z,10.80
2022-10-21T17:07:23.324Z,10.80
2022-10-21T17:10:12.144Z,10.80
2022-10-21T17:13:01.612Z,10.70
2022-10-21T17:15:50.365Z,10.80
2022-10-21T17:18:39.451Z,10.80
2022-10-21T17:21:29.734Z,10.80
2022-10-21T17:24:20.311Z,10.80
2022-10-21T17:27:09.222Z,10.90
2022-10-21T17:29:57.852Z,10.90
2022-10-21T17:32:46.822Z,10.90
2022-10-21T17:35:35.426Z,10.90
2022-10-21T17:38:24.064Z,10.90
2022-10-21T17:41:16.911Z,10.80
2022-10-21T17:44:05.709Z,10.70
2022-10-21T17:46:54.791Z,10.70
2022-10-21T17:49:43.780Z,10.80
2022-10-21T17:52:32.679Z,10.80
2022-10-21T17:55:22.045Z,10.70
2022-10-21T17:58:12.113Z,10.70
2022-10-21T18:01:05.169Z,10.60
2022-10-21T18:03:54.720Z,10.70
2022-10-21T18:06:47.087Z,10.70
2022-10-21T18:09:36.003Z,10.70
2022-10-21T18:12:25.523Z,10.60
2022-10-21T18:15:15.868Z,10.60
2022-10-21T18:18:04.680Z,10.50
2022-10-21T18:20:53.406Z,10.50
2022-10-21T18:23:43.651Z,10.60
2022-10-21T18:26:33.086Z,10.60
2022-10-21T18:29:22.343Z,10.60
2022-10-21T18:32:14.580Z,10.50
2022-10-21T18:35:03.915Z,10.50
2022-10-21T18:37:53.113Z,10.40
2022-10-21T18:40:47.081Z,10.50
2022-10-21T18:43:48.467Z,10.50
2022-10-21T18:46:42.407Z,10.40
2022-10-21T18:49:33.351Z,10.40
2022-10-21T18:52:22.062Z,10.50
2022-10-21T18:55:10.936Z,10.40
2022-10-21T18:57:59.538Z,10.40
2022-10-21T19:00:48.160Z,10.40
2022-10-21T19:03:37.505Z,10.40
2022-10-21T19:06:37.900Z,10.40
2022-10-21T19:09:28.854Z,10.20
2022-10-21T19:12:20.957Z,10.10
2022-10-21T19:15:12.324Z,10.20
2022-10-21T19:18:01.001Z,10.20
2022-10-21T19:20:49.583Z,10.20
2022-10-21T19:23:39.991Z,10.20
2022-10-21T19:26:29.020Z,10.20
2022-10-21T19:29:20.001Z,10.20
2022-10-21T19:32:08.634Z,10.20
2022-10-21T19:34:57.239Z,10.10
2022-10-21T19:37:45.915Z,10.20
2022-10-21T19:40:36.249Z,10.20
2022-10-21T19:43:25.067Z,10.20
2022-10-21T19:46:20.057Z,10.20
2022-10-21T19:49:12.884Z,10.20
2022-10-21T19:52:03.215Z,10.10
2022-10-21T19:54:52.560Z,10.10
2022-10-21T19:57:42.704Z,10.00
2022-10-21T20:00:31.605Z,10.00
2022-10-21T20:03:20.378Z,10.10
2022-10-21T20:06:10.864Z,10.10
2022-10-21T20:09:01.452Z,10.10
2022-10-21T20:11:50.147Z,10.10
2022-10-21T20:14:41.084Z,10.10
2022-10-21T20:17:29.763Z,10.10
2022-10-21T20:20:18.498Z,10.20
2022-10-21T20:23:07.363Z,10.30
2022-10-21T20:25:57.594Z,10.10
2022-10-21T20:28:46.485Z,10.30
2022-10-21T20:31:36.516Z,10.30
2022-10-21T20:34:26.602Z,10.30
2022-10-21T20:37:15.332Z,10.20
2022-10-21T20:40:04.061Z,10.40
2022-10-21T20:42:52.718Z,10.30
2022-10-21T20:45:41.492Z,10.40
2022-10-21T20:48:32.232Z,10.30
2022-10-21T20:51:23.881Z,10.30
2022-10-21T20:54:16.184Z,10.30
2022-10-21T20:57:05.800Z,10.40
2022-10-21T20:59:54.374Z,10.40
2022-10-21T21:02:43.166Z,10.40
2022-10-21T21:05:38.858Z,10.50
2022-10-21T21:08:27.790Z,10.40
2022-10-21T21:11:17.007Z,10.40
2022-10-21T21:14:05.611Z,10.50
2022-10-21T21:16:54.291Z,10.50
2022-10-21T21:19:43.186Z,10.50
2022-10-21T21:22:36.127Z,10.50
2022-10-21T21:25:24.910Z,10.50
2022-10-21T21:28:13.473Z,10.50
2022-10-21T21:31:02.526Z,10.50
2022-10-21T21:33:51.775Z,10.50
2022-10-21T21:36:40.437Z,10.50
2022-10-21T21:39:30.792Z,10.50
2022-10-21T21:42:19.612Z,10.50
2022-10-21T21:45:09.562Z,10.50
2022-10-21T21:47:58.158Z,10.50
2022-10-21T21:50:47.215Z,10.50
2022-10-21T21:53:36.200Z,10.40
2022-10-21T21:56:27.942Z,10.50
2022-10-21T21:59:16.870Z,10.50
2022-10-21T22:02:05.611Z,10.50
2022-10-21T22:04:54.278Z,10.50
2022-10-21T22:07:43.499Z,10.50
2022-10-21T22:10:32.371Z,10.50
2022-10-21T22:13:22.270Z,10.50
2022-10-21T22:16:13.663Z,10.60
2022-10-21T22:19:03.380Z,10.60
2022-10-21T22:21:52.042Z,10.60
2022-10-21T22:24:40.622Z,10.60
2022-10-21T22:27:29.601Z,10.60
2022-10-21T22:30:19.631Z,10.50
2022-10-21T22:33:08.315Z,10.50
2022-10-21T22:35:57.448Z,10.60
2022-10-21T22:38:46.616Z,10.60
2022-10-21T22:41:35.287Z,10.50
2022-10-21T22:44:23.930Z,10.50
2022-10-21T22:47:14.038Z,10.50
2022-10-21T22:50:02.693Z,10.50
2022-10-21T22:52:51.378Z,10.50
2022-10-21T22:55:40.737Z,10.50
2022-10-21T22:58:30.213Z,10.50
2022-10-21T23:01:18.991Z,10.50
2022-10-21T23:04:10.090Z,10.50
2022-10-21T23:06:59.115Z,10.50
2022-10-21T23:09:47.829Z,10.50
2022-10-21T23:12:36.521Z,10.50
2022-10-21T23:15:25.689Z,10.50
2022-10-21T23:18:14.447Z,10.50
2022-10-21T23:21:04.670Z,10.50
2022-10-21T23:23:53.445Z,10.50
2022-10-21T23:26:42.064Z,10.50
2022-10-21T23:29:30.877Z,10.50
2022-10-21T23:32:19.531Z,10.50
2022-10-21T23:35:09.003Z,10.50
2022-10-21T23:37:59.430Z,10.50
2022-10-21T23:40:48.047Z,10.60
2022-10-21T23:43:36.786Z,10.60
2022-10-21T23:46:28.873Z,10.50
2022-10-21T23:49:17.569Z,10.60
2022-10-21T23:52:06.316Z,10.50
2022-10-21T23:54:56.351Z,10.60
2022-10-21T23:57:45.157Z,10.50
